sensor_id;sensor_type;location;lat;lon;timestamp;P1;durP1;ratioP1;P2;durP2;ratioP2
68765;SDS011;55756;45.582;11.484;2023-02-28T00:00:27;13.77;;;7.35;;
68765;SDS011;55756;45.582;11.484;2023-02-28T00:02:53;13.55;;;7.10;;
68765;SDS011;55756;45.582;11.484;2023-02-28T00:05:21;13.77;;;7.20;;
68765;SDS011;55756;45.582;11.484;2023-02-28T00:07:48;14.07;;;7.25;;
68765;SDS011;55756;45.582;11.484;2023-02-28T00:10:33;12.50;;;7.00;;
68765;SDS011;55756;45.582;11.484;2023-02-28T00:13:03;13.02;;;6.72;;
68765;SDS011;55756;45.582;11.484;2023-02-28T00:15:31;11.68;;;6.55;;
68765;SDS011;55756;45.582;11.484;2023-02-28T00:17:57;11.60;;;7.10;;
68765;SDS011;55756;45.582;11.484;2023-02-28T00:20:23;13.18;;;6.65;;
68765;SDS011;55756;45.582;11.484;2023-02-28T00:22:50;12.35;;;6.63;;
68765;SDS011;55756;45.582;11.484;2023-02-28T00:25:19;11.90;;;6.17;;
68765;SDS011;55756;45.582;11.484;2023-02-28T00:27:46;11.03;;;6.27;;
68765;SDS011;55756;45.582;11.484;2023-02-28T00:30:16;10.10;;;5.55;;
68765;SDS011;55756;45.582;11.484;2023-02-28T00:32:47;13.07;;;6.22;;
68765;SDS011;55756;45.582;11.484;2023-02-28T00:35:13;12.40;;;6.18;;
68765;SDS011;55756;45.582;11.484;2023-02-28T00:37:40;10.82;;;5.85;;
68765;SDS011;55756;45.582;11.484;2023-02-28T00:40:06;10.93;;;5.85;;
68765;SDS011;55756;45.582;11.484;2023-02-28T00:42:33;12.25;;;6.30;;
68765;SDS011;55756;45.582;11.484;2023-02-28T00:45:00;12.27;;;6.70;;
68765;SDS011;55756;45.582;11.484;2023-02-28T00:47:26;12.98;;;7.00;;
68765;SDS011;55756;45.582;11.484;2023-02-28T00:49:52;12.52;;;6.65;;
68765;SDS011;55756;45.582;11.484;2023-02-28T00:52:17;12.38;;;7.00;;
68765;SDS011;55756;45.582;11.484;2023-02-28T00:54:46;12.10;;;7.22;;
68765;SDS011;55756;45.582;11.484;2023-02-28T00:57:13;12.77;;;7.43;;
68765;SDS011;55756;45.582;11.484;2023-02-28T00:59:39;12.70;;;7.35;;
68765;SDS011;55756;45.582;11.484;2023-02-28T01:02:05;11.73;;;6.85;;
68765;SDS011;55756;45.582;11.484;2023-02-28T01:04:31;12.45;;;6.63;;
68765;SDS011;55756;45.582;11.484;2023-02-28T01:07:00;13.25;;;6.90;;
68765;SDS011;55756;45.582;11.484;2023-02-28T01:09:27;13.73;;;7.22;;
68765;SDS011;55756;45.582;11.484;2023-02-28T01:11:53;12.02;;;6.78;;
68765;SDS011;55756;45.582;11.484;2023-02-28T01:14:19;13.07;;;6.63;;
68765;SDS011;55756;45.582;11.484;2023-02-28T01:16:48;11.35;;;6.60;;
68765;SDS011;55756;45.582;11.484;2023-02-28T01:19:13;15.05;;;6.70;;
68765;SDS011;55756;45.582;11.484;2023-02-28T01:21:39;11.90;;;6.50;;
68765;SDS011;55756;45.582;11.484;2023-02-28T01:24:05;13.30;;;6.57;;
68765;SDS011;55756;45.582;11.484;2023-02-28T01:26:34;12.18;;;7.07;;
68765;SDS011;55756;45.582;11.484;2023-02-28T01:29:00;11.88;;;6.82;;
68765;SDS011;55756;45.582;11.484;2023-02-28T01:31:25;13.27;;;6.72;;
68765;SDS011;55756;45.582;11.484;2023-02-28T01:33:51;14.95;;;7.38;;
68765;SDS011;55756;45.582;11.484;2023-02-28T01:36:18;12.05;;;6.70;;
68765;SDS011;55756;45.582;11.484;2023-02-28T01:41:19;13.07;;;6.88;;
68765;SDS011;55756;45.582;11.484;2023-02-28T01:46:23;13.35;;;7.10;;
68765;SDS011;55756;45.582;11.484;2023-02-28T01:48:55;13.32;;;7.43;;
68765;SDS011;55756;45.582;11.484;2023-02-28T01:51:38;13.25;;;7.15;;
68765;SDS011;55756;45.582;11.484;2023-02-28T01:54:07;12.32;;;7.03;;
68765;SDS011;55756;45.582;11.484;2023-02-28T01:56:40;11.20;;;6.85;;
68765;SDS011;55756;45.582;11.484;2023-02-28T01:59:13;11.98;;;6.55;;
68765;SDS011;55756;45.582;11.484;2023-02-28T02:01:45;14.88;;;7.32;;
68765;SDS011;55756;45.582;11.484;2023-02-28T02:04:10;11.40;;;6.38;;
68765;SDS011;55756;45.582;11.484;2023-02-28T02:06:44;11.70;;;6.22;;
68765;SDS011;55756;45.582;11.484;2023-02-28T02:09:12;11.13;;;6.05;;
68765;SDS011;55756;45.582;11.484;2023-02-28T02:11:39;12.23;;;6.57;;
68765;SDS011;55756;45.582;11.484;2023-02-28T02:26:09;11.07;;;6.18;;
68765;SDS011;55756;45.582;11.484;2023-02-28T02:39:35;10.43;;;5.68;;
68765;SDS011;55756;45.582;11.484;2023-02-28T02:42:14;11.43;;;6.15;;
68765;SDS011;55756;45.582;11.484;2023-02-28T02:44:48;11.35;;;6.20;;
68765;SDS011;55756;45.582;11.484;2023-02-28T02:47:22;11.57;;;6.18;;
68765;SDS011;55756;45.582;11.484;2023-02-28T02:49:52;11.25;;;5.53;;
68765;SDS011;55756;45.582;11.484;2023-02-28T02:52:23;11.00;;;5.72;;
68765;SDS011;55756;45.582;11.484;2023-02-28T02:54:57;9.88;;;5.82;;
68765;SDS011;55756;45.582;11.484;2023-02-28T02:57:26;11.35;;;6.25;;
68765;SDS011;55756;45.582;11.484;2023-02-28T03:00:02;12.70;;;5.65;;
68765;SDS011;55756;45.582;11.484;2023-02-28T03:05:00;11.35;;;6.03;;
68765;SDS011;55756;45.582;11.484;2023-02-28T03:07:29;10.43;;;6.70;;
68765;SDS011;55756;45.582;11.484;2023-02-28T03:09:56;11.02;;;6.20;;
68765;SDS011;55756;45.582;11.484;2023-02-28T03:12:23;11.10;;;6.13;;
68765;SDS011;55756;45.582;11.484;2023-02-28T03:15:08;10.90;;;6.20;;
68765;SDS011;55756;45.582;11.484;2023-02-28T03:18:06;10.95;;;5.70;;
68765;SDS011;55756;45.582;11.484;2023-02-28T03:26:27;10.13;;;5.45;;
68765;SDS011;55756;45.582;11.484;2023-02-28T03:31:33;9.70;;;5.60;;
68765;SDS011;55756;45.582;11.484;2023-02-28T03:34:36;10.70;;;5.38;;
68765;SDS011;55756;45.582;11.484;2023-02-28T03:36:57;13.57;;;5.63;;
68765;SDS011;55756;45.582;11.484;2023-02-28T03:39:42;9.45;;;4.88;;
68765;SDS011;55756;45.582;11.484;2023-02-28T03:42:14;11.60;;;5.88;;
68765;SDS011;55756;45.582;11.484;2023-02-28T03:44:45;9.85;;;5.65;;
68765;SDS011;55756;45.582;11.484;2023-02-28T03:47:16;11.38;;;5.97;;
68765;SDS011;55756;45.582;11.484;2023-02-28T03:52:38;10.05;;;5.47;;
68765;SDS011;55756;45.582;11.484;2023-02-28T03:55:08;9.43;;;5.28;;
68765;SDS011;55756;45.582;11.484;2023-02-28T04:00:34;10.43;;;5.43;;
68765;SDS011;55756;45.582;11.484;2023-02-28T04:03:03;10.20;;;5.43;;
68765;SDS011;55756;45.582;11.484;2023-02-28T04:05:29;9.40;;;5.20;;
68765;SDS011;55756;45.582;11.484;2023-02-28T04:08:06;9.77;;;4.97;;
68765;SDS011;55756;45.582;11.484;2023-02-28T04:10:32;10.73;;;5.50;;
68765;SDS011;55756;45.582;11.484;2023-02-28T04:12:58;8.98;;;5.20;;
68765;SDS011;55756;45.582;11.484;2023-02-28T04:15:24;9.98;;;5.50;;
68765;SDS011;55756;45.582;11.484;2023-02-28T04:17:52;10.35;;;5.38;;
68765;SDS011;55756;45.582;11.484;2023-02-28T04:20:18;9.13;;;5.43;;
68765;SDS011;55756;45.582;11.484;2023-02-28T04:22:44;9.65;;;5.35;;
68765;SDS011;55756;45.582;11.484;2023-02-28T04:25:09;10.40;;;5.30;;
68765;SDS011;55756;45.582;11.484;2023-02-28T04:27:35;10.23;;;5.63;;
68765;SDS011;55756;45.582;11.484;2023-02-28T04:30:01;9.35;;;5.45;;
68765;SDS011;55756;45.582;11.484;2023-02-28T04:32:27;10.18;;;5.57;;
68765;SDS011;55756;45.582;11.484;2023-02-28T04:34:53;10.90;;;5.05;;
68765;SDS011;55756;45.582;11.484;2023-02-28T04:37:19;10.23;;;5.90;;
68765;SDS011;55756;45.582;11.484;2023-02-28T04:39:44;10.65;;;6.05;;
68765;SDS011;55756;45.582;11.484;2023-02-28T04:42:10;9.77;;;5.70;;
68765;SDS011;55756;45.582;11.484;2023-02-28T04:44:37;10.18;;;5.80;;
68765;SDS011;55756;45.582;11.484;2023-02-28T04:47:03;11.48;;;6.03;;
68765;SDS011;55756;45.582;11.484;2023-02-28T04:49:28;10.65;;;5.78;;
68765;SDS011;55756;45.582;11.484;2023-02-28T04:51:54;10.20;;;5.63;;
68765;SDS011;55756;45.582;11.484;2023-02-28T04:54:20;10.55;;;5.85;;
68765;SDS011;55756;45.582;11.484;2023-02-28T04:56:46;10.75;;;5.85;;
68765;SDS011;55756;45.582;11.484;2023-02-28T04:59:14;11.70;;;6.30;;
68765;SDS011;55756;45.582;11.484;2023-02-28T05:01:40;11.13;;;6.30;;
68765;SDS011;55756;45.582;11.484;2023-02-28T05:04:10;11.52;;;6.75;;
68765;SDS011;55756;45.582;11.484;2023-02-28T05:06:35;12.52;;;6.28;;
68765;SDS011;55756;45.582;11.484;2023-02-28T05:09:01;11.15;;;6.00;;
68765;SDS011;55756;45.582;11.484;2023-02-28T05:11:28;10.73;;;5.85;;
68765;SDS011;55756;45.582;11.484;2023-02-28T05:14:00;10.57;;;5.85;;
68765;SDS011;55756;45.582;11.484;2023-02-28T05:16:27;10.98;;;5.78;;
68765;SDS011;55756;45.582;11.484;2023-02-28T05:18:52;11.27;;;5.53;;
68765;SDS011;55756;45.582;11.484;2023-02-28T05:21:29;10.70;;;5.70;;
68765;SDS011;55756;45.582;11.484;2023-02-28T05:23:58;12.07;;;5.82;;
68765;SDS011;55756;45.582;11.484;2023-02-28T05:26:27;10.43;;;5.88;;
68765;SDS011;55756;45.582;11.484;2023-02-28T05:28:53;11.73;;;6.10;;
68765;SDS011;55756;45.582;11.484;2023-02-28T05:31:19;10.50;;;5.70;;
68765;SDS011;55756;45.582;11.484;2023-02-28T05:33:45;9.93;;;5.70;;
68765;SDS011;55756;45.582;11.484;2023-02-28T05:36:11;10.48;;;5.68;;
68765;SDS011;55756;45.582;11.484;2023-02-28T05:38:37;10.77;;;5.70;;
68765;SDS011;55756;45.582;11.484;2023-02-28T05:41:06;10.95;;;5.68;;
68765;SDS011;55756;45.582;11.484;2023-02-28T05:43:33;9.98;;;5.80;;
68765;SDS011;55756;45.582;11.484;2023-02-28T05:45:59;12.10;;;5.90;;
68765;SDS011;55756;45.582;11.484;2023-02-28T05:48:28;10.25;;;5.82;;
68765;SDS011;55756;45.582;11.484;2023-02-28T05:50:54;12.38;;;6.43;;
68765;SDS011;55756;45.582;11.484;2023-02-28T05:53:21;11.27;;;6.43;;
68765;SDS011;55756;45.582;11.484;2023-02-28T05:55:48;13.10;;;7.20;;
68765;SDS011;55756;45.582;11.484;2023-02-28T05:58:13;13.15;;;7.40;;
68765;SDS011;55756;45.582;11.484;2023-02-28T06:00:39;13.27;;;6.90;;
68765;SDS011;55756;45.582;11.484;2023-02-28T06:03:05;13.20;;;7.10;;
68765;SDS011;55756;45.582;11.484;2023-02-28T06:05:30;13.20;;;7.30;;
68765;SDS011;55756;45.582;11.484;2023-02-28T06:07:56;12.98;;;6.65;;
68765;SDS011;55756;45.582;11.484;2023-02-28T06:10:22;12.70;;;7.22;;
68765;SDS011;55756;45.582;11.484;2023-02-28T06:12:47;12.25;;;6.70;;
68765;SDS011;55756;45.582;11.484;2023-02-28T06:15:14;12.23;;;6.20;;
68765;SDS011;55756;45.582;11.484;2023-02-28T06:17:40;13.05;;;6.40;;
68765;SDS011;55756;45.582;11.484;2023-02-28T06:20:07;12.60;;;6.82;;
68765;SDS011;55756;45.582;11.484;2023-02-28T06:22:37;11.60;;;6.22;;
68765;SDS011;55756;45.582;11.484;2023-02-28T06:25:03;12.10;;;6.55;;
68765;SDS011;55756;45.582;11.484;2023-02-28T06:27:30;13.18;;;6.93;;
68765;SDS011;55756;45.582;11.484;2023-02-28T06:29:57;13.88;;;7.88;;
68765;SDS011;55756;45.582;11.484;2023-02-28T06:32:23;13.13;;;7.00;;
68765;SDS011;55756;45.582;11.484;2023-02-28T06:34:49;12.52;;;6.78;;
68765;SDS011;55756;45.582;11.484;2023-02-28T06:37:16;16.80;;;7.40;;
68765;SDS011;55756;45.582;11.484;2023-02-28T06:39:42;14.07;;;7.20;;
68765;SDS011;55756;45.582;11.484;2023-02-28T06:42:10;12.73;;;7.03;;
68765;SDS011;55756;45.582;11.484;2023-02-28T06:44:36;12.73;;;7.20;;
68765;SDS011;55756;45.582;11.484;2023-02-28T06:47:04;14.32;;;7.78;;
68765;SDS011;55756;45.582;11.484;2023-02-28T06:49:31;14.45;;;7.28;;
68765;SDS011;55756;45.582;11.484;2023-02-28T06:51:59;13.73;;;7.50;;
68765;SDS011;55756;45.582;11.484;2023-02-28T06:54:24;13.25;;;7.25;;
68765;SDS011;55756;45.582;11.484;2023-02-28T06:56:50;16.50;;;7.93;;
68765;SDS011;55756;45.582;11.484;2023-02-28T06:59:16;15.32;;;7.45;;
68765;SDS011;55756;45.582;11.484;2023-02-28T07:01:42;13.15;;;7.70;;
68765;SDS011;55756;45.582;11.484;2023-02-28T07:04:08;15.88;;;8.43;;
68765;SDS011;55756;45.582;11.484;2023-02-28T07:06:34;15.93;;;8.52;;
68765;SDS011;55756;45.582;11.484;2023-02-28T07:09:00;17.38;;;8.48;;
68765;SDS011;55756;45.582;11.484;2023-02-28T07:11:26;18.77;;;9.68;;
68765;SDS011;55756;45.582;11.484;2023-02-28T07:13:53;17.33;;;8.98;;
68765;SDS011;55756;45.582;11.484;2023-02-28T07:16:20;16.88;;;9.20;;
68765;SDS011;55756;45.582;11.484;2023-02-28T07:18:46;15.52;;;8.38;;
68765;SDS011;55756;45.582;11.484;2023-02-28T07:21:13;15.43;;;8.20;;
68765;SDS011;55756;45.582;11.484;2023-02-28T07:23:39;15.93;;;8.25;;
68765;SDS011;55756;45.582;11.484;2023-02-28T07:26:07;15.10;;;9.00;;
68765;SDS011;55756;45.582;11.484;2023-02-28T07:28:46;15.43;;;8.50;;
68765;SDS011;55756;45.582;11.484;2023-02-28T07:31:13;17.58;;;9.27;;
68765;SDS011;55756;45.582;11.484;2023-02-28T07:33:39;16.55;;;8.80;;
68765;SDS011;55756;45.582;11.484;2023-02-28T07:36:06;16.77;;;8.98;;
68765;SDS011;55756;45.582;11.484;2023-02-28T07:38:37;16.90;;;9.45;;
68765;SDS011;55756;45.582;11.484;2023-02-28T07:43:31;21.25;;;9.27;;
68765;SDS011;55756;45.582;11.484;2023-02-28T07:46:04;17.05;;;8.93;;
68765;SDS011;55756;45.582;11.484;2023-02-28T07:48:35;16.27;;;9.10;;
68765;SDS011;55756;45.582;11.484;2023-02-28T07:51:01;18.15;;;9.15;;
68765;SDS011;55756;45.582;11.484;2023-02-28T07:53:27;17.65;;;9.05;;
68765;SDS011;55756;45.582;11.484;2023-02-28T07:55:57;15.32;;;8.80;;
68765;SDS011;55756;45.582;11.484;2023-02-28T07:58:24;17.45;;;9.35;;
68765;SDS011;55756;45.582;11.484;2023-02-28T08:00:52;17.75;;;9.25;;
68765;SDS011;55756;45.582;11.484;2023-02-28T08:03:18;14.00;;;8.30;;
68765;SDS011;55756;45.582;11.484;2023-02-28T08:05:45;14.35;;;8.50;;
68765;SDS011;55756;45.582;11.484;2023-02-28T08:08:11;16.13;;;9.00;;
68765;SDS011;55756;45.582;11.484;2023-02-28T08:10:37;18.00;;;9.27;;
68765;SDS011;55756;45.582;11.484;2023-02-28T08:13:03;15.68;;;8.98;;
68765;SDS011;55756;45.582;11.484;2023-02-28T08:15:29;17.27;;;8.85;;
68765;SDS011;55756;45.582;11.484;2023-02-28T08:17:54;14.93;;;8.13;;
68765;SDS011;55756;45.582;11.484;2023-02-28T08:20:23;20.15;;;8.13;;
68765;SDS011;55756;45.582;11.484;2023-02-28T08:22:49;16.80;;;7.57;;
68765;SDS011;55756;45.582;11.484;2023-02-28T08:25:15;13.85;;;7.50;;
68765;SDS011;55756;45.582;11.484;2023-02-28T08:27:41;13.98;;;7.60;;
68765;SDS011;55756;45.582;11.484;2023-02-28T08:30:07;12.60;;;7.22;;
68765;SDS011;55756;45.582;11.484;2023-02-28T08:32:35;14.40;;;7.30;;
68765;SDS011;55756;45.582;11.484;2023-02-28T08:35:03;15.50;;;8.20;;
68765;SDS011;55756;45.582;11.484;2023-02-28T08:37:29;12.88;;;7.15;;
68765;SDS011;55756;45.582;11.484;2023-02-28T08:39:55;15.73;;;7.72;;
68765;SDS011;55756;45.582;11.484;2023-02-28T08:42:22;15.60;;;8.40;;
68765;SDS011;55756;45.582;11.484;2023-02-28T08:44:49;13.88;;;7.63;;
68765;SDS011;55756;45.582;11.484;2023-02-28T08:47:14;14.70;;;8.38;;
68765;SDS011;55756;45.582;11.484;2023-02-28T08:49:46;14.95;;;7.70;;
68765;SDS011;55756;45.582;11.484;2023-02-28T08:52:12;16.23;;;6.75;;
68765;SDS011;55756;45.582;11.484;2023-02-28T08:54:38;13.93;;;6.90;;
68765;SDS011;55756;45.582;11.484;2023-02-28T08:57:04;14.00;;;7.22;;
68765;SDS011;55756;45.582;11.484;2023-02-28T08:59:32;12.65;;;6.47;;
68765;SDS011;55756;45.582;11.484;2023-02-28T09:01:58;13.25;;;6.72;;
68765;SDS011;55756;45.582;11.484;2023-02-28T09:04:23;13.15;;;6.90;;
68765;SDS011;55756;45.582;11.484;2023-02-28T09:06:49;12.40;;;6.43;;
68765;SDS011;55756;45.582;11.484;2023-02-28T09:09:15;14.90;;;6.53;;
68765;SDS011;55756;45.582;11.484;2023-02-28T09:11:41;12.77;;;6.68;;
68765;SDS011;55756;45.582;11.484;2023-02-28T09:14:08;12.35;;;6.57;;
68765;SDS011;55756;45.582;11.484;2023-02-28T09:16:34;13.93;;;6.53;;
68765;SDS011;55756;45.582;11.484;2023-02-28T09:19:00;12.85;;;6.70;;
68765;SDS011;55756;45.582;11.484;2023-02-28T09:21:26;12.68;;;6.38;;
68765;SDS011;55756;45.582;11.484;2023-02-28T09:23:52;12.13;;;6.50;;
68765;SDS011;55756;45.582;11.484;2023-02-28T09:26:19;12.15;;;6.20;;
68765;SDS011;55756;45.582;11.484;2023-02-28T09:28:47;12.90;;;6.45;;
68765;SDS011;55756;45.582;11.484;2023-02-28T09:31:14;13.45;;;6.53;;
68765;SDS011;55756;45.582;11.484;2023-02-28T09:33:42;16.02;;;6.65;;
68765;SDS011;55756;45.582;11.484;2023-02-28T09:36:08;13.27;;;6.05;;
68765;SDS011;55756;45.582;11.484;2023-02-28T09:38:34;13.82;;;6.88;;
68765;SDS011;55756;45.582;11.484;2023-02-28T09:41:03;14.68;;;7.40;;
68765;SDS011;55756;45.582;11.484;2023-02-28T09:43:38;12.30;;;6.53;;
68765;SDS011;55756;45.582;11.484;2023-02-28T09:46:11;12.30;;;6.35;;
68765;SDS011;55756;45.582;11.484;2023-02-28T09:48:51;13.18;;;6.20;;
68765;SDS011;55756;45.582;11.484;2023-02-28T09:54:20;15.43;;;6.70;;
68765;SDS011;55756;45.582;11.484;2023-02-28T09:56:53;12.50;;;6.47;;
68765;SDS011;55756;45.582;11.484;2023-02-28T09:59:31;12.02;;;6.60;;
68765;SDS011;55756;45.582;11.484;2023-02-28T10:02:20;13.45;;;6.78;;
68765;SDS011;55756;45.582;11.484;2023-02-28T10:05:13;14.32;;;6.75;;
68765;SDS011;55756;45.582;11.484;2023-02-28T10:08:02;11.13;;;6.10;;
68765;SDS011;55756;45.582;11.484;2023-02-28T10:13:13;12.70;;;6.70;;
68765;SDS011;55756;45.582;11.484;2023-02-28T10:15:41;14.65;;;6.47;;
68765;SDS011;55756;45.582;11.484;2023-02-28T10:18:13;13.38;;;6.60;;
68765;SDS011;55756;45.582;11.484;2023-02-28T10:20:46;12.07;;;6.43;;
68765;SDS011;55756;45.582;11.484;2023-02-28T10:25:58;13.05;;;6.35;;
68765;SDS011;55756;45.582;11.484;2023-02-28T10:28:26;13.48;;;6.82;;
68765;SDS011;55756;45.582;11.484;2023-02-28T10:30:54;12.53;;;6.83;;
68765;SDS011;55756;45.582;11.484;2023-02-28T10:33:25;12.43;;;6.80;;
68765;SDS011;55756;45.582;11.484;2023-02-28T10:36:00;13.45;;;7.15;;
68765;SDS011;55756;45.582;11.484;2023-02-28T10:38:31;12.75;;;6.63;;
68765;SDS011;55756;45.582;11.484;2023-02-28T10:43:52;13.20;;;7.18;;
68765;SDS011;55756;45.582;11.484;2023-02-28T10:46:39;13.00;;;7.07;;
68765;SDS011;55756;45.582;11.484;2023-02-28T10:49:06;11.35;;;6.78;;
68765;SDS011;55756;45.582;11.484;2023-02-28T10:51:42;11.80;;;6.85;;
68765;SDS011;55756;45.582;11.484;2023-02-28T10:54:19;12.50;;;6.78;;
68765;SDS011;55756;45.582;11.484;2023-02-28T10:57:08;13.60;;;7.53;;
68765;SDS011;55756;45.582;11.484;2023-02-28T10:59:42;13.23;;;7.28;;
68765;SDS011;55756;45.582;11.484;2023-02-28T11:04:58;13.75;;;7.10;;
68765;SDS011;55756;45.582;11.484;2023-02-28T11:07:25;12.68;;;6.70;;
68765;SDS011;55756;45.582;11.484;2023-02-28T11:09:56;13.50;;;7.35;;
68765;SDS011;55756;45.582;11.484;2023-02-28T11:12:27;15.10;;;7.18;;
68765;SDS011;55756;45.582;11.484;2023-02-28T11:14:58;14.45;;;7.22;;
68765;SDS011;55756;45.582;11.484;2023-02-28T11:17:28;15.07;;;7.07;;
68765;SDS011;55756;45.582;11.484;2023-02-28T11:20:00;13.48;;;7.22;;
68765;SDS011;55756;45.582;11.484;2023-02-28T11:22:30;14.13;;;7.55;;
68765;SDS011;55756;45.582;11.484;2023-02-28T11:25:07;17.98;;;7.45;;
68765;SDS011;55756;45.582;11.484;2023-02-28T11:27:46;14.77;;;6.93;;
68765;SDS011;55756;45.582;11.484;2023-02-28T11:30:31;16.25;;;9.07;;
68765;SDS011;55756;45.582;11.484;2023-02-28T11:35:48;18.67;;;7.60;;
68765;SDS011;55756;45.582;11.484;2023-02-28T11:38:16;14.25;;;7.53;;
68765;SDS011;55756;45.582;11.484;2023-02-28T11:51:57;16.20;;;7.40;;
68765;SDS011;55756;45.582;11.484;2023-02-28T11:54:48;16.20;;;7.43;;
68765;SDS011;55756;45.582;11.484;2023-02-28T12:00:02;13.20;;;7.38;;
68765;SDS011;55756;45.582;11.484;2023-02-28T12:10:59;12.40;;;6.75;;
68765;SDS011;55756;45.582;11.484;2023-02-28T12:22:28;13.38;;;6.63;;
68765;SDS011;55756;45.582;11.484;2023-02-28T12:25:02;15.90;;;7.28;;
68765;SDS011;55756;45.582;11.484;2023-02-28T12:27:32;13.55;;;7.13;;
68765;SDS011;55756;45.582;11.484;2023-02-28T12:30:14;16.02;;;7.43;;
68765;SDS011;55756;45.582;11.484;2023-02-28T12:32:45;14.23;;;7.03;;
68765;SDS011;55756;45.582;11.484;2023-02-28T12:35:33;14.27;;;7.07;;
68765;SDS011;55756;45.582;11.484;2023-02-28T12:40:45;13.45;;;7.25;;
68765;SDS011;55756;45.582;11.484;2023-02-28T12:43:37;12.82;;;6.95;;
68765;SDS011;55756;45.582;11.484;2023-02-28T12:46:09;14.25;;;6.85;;
68765;SDS011;55756;45.582;11.484;2023-02-28T12:48:41;14.73;;;7.38;;
68765;SDS011;55756;45.582;11.484;2023-02-28T12:51:11;12.95;;;7.20;;
68765;SDS011;55756;45.582;11.484;2023-02-28T12:53:52;14.05;;;7.55;;
68765;SDS011;55756;45.582;11.484;2023-02-28T13:05:13;13.13;;;6.90;;
68765;SDS011;55756;45.582;11.484;2023-02-28T13:10:23;12.35;;;6.72;;
68765;SDS011;55756;45.582;11.484;2023-02-28T13:12:49;11.60;;;6.80;;
68765;SDS011;55756;45.582;11.484;2023-02-28T13:17:52;13.70;;;7.32;;
68765;SDS011;55756;45.582;11.484;2023-02-28T13:20:20;12.77;;;6.97;;
68765;SDS011;55756;45.582;11.484;2023-02-28T13:22:50;12.85;;;6.78;;
68765;SDS011;55756;45.582;11.484;2023-02-28T13:27:58;13.98;;;7.05;;
68765;SDS011;55756;45.582;11.484;2023-02-28T13:35:45;14.70;;;7.00;;
68765;SDS011;55756;45.582;11.484;2023-02-28T13:38:17;14.35;;;7.45;;
68765;SDS011;55756;45.582;11.484;2023-02-28T13:40:56;12.27;;;6.90;;
68765;SDS011;55756;45.582;11.484;2023-02-28T13:44:15;12.23;;;6.72;;
68765;SDS011;55756;45.582;11.484;2023-02-28T14:05:40;12.18;;;6.35;;
68765;SDS011;55756;45.582;11.484;2023-02-28T14:08:14;11.13;;;6.43;;
68765;SDS011;55756;45.582;11.484;2023-02-28T14:10:49;13.32;;;6.80;;
68765;SDS011;55756;45.582;11.484;2023-02-28T14:16:22;12.48;;;6.80;;
68765;SDS011;55756;45.582;11.484;2023-02-28T14:18:55;13.02;;;7.72;;
68765;SDS011;55756;45.582;11.484;2023-02-28T14:21:25;13.45;;;6.95;;
68765;SDS011;55756;45.582;11.484;2023-02-28T14:24:10;12.40;;;6.65;;
68765;SDS011;55756;45.582;11.484;2023-02-28T14:37:51;13.32;;;8.15;;
68765;SDS011;55756;45.582;11.484;2023-02-28T14:40:31;16.00;;;8.02;;
68765;SDS011;55756;45.582;11.484;2023-02-28T14:43:03;15.30;;;7.43;;
68765;SDS011;55756;45.582;11.484;2023-02-28T14:45:32;13.13;;;7.38;;
68765;SDS011;55756;45.582;11.484;2023-02-28T14:48:01;13.15;;;7.88;;
68765;SDS011;55756;45.582;11.484;2023-02-28T14:50:36;13.60;;;7.70;;
68765;SDS011;55756;45.582;11.484;2023-02-28T14:53:02;15.32;;;8.48;;
68765;SDS011;55756;45.582;11.484;2023-02-28T14:55:30;16.15;;;8.55;;
68765;SDS011;55756;45.582;11.484;2023-02-28T14:57:59;14.43;;;8.05;;
68765;SDS011;55756;45.582;11.484;2023-02-28T15:00:36;14.13;;;7.78;;
68765;SDS011;55756;45.582;11.484;2023-02-28T15:03:18;13.88;;;7.55;;
68765;SDS011;55756;45.582;11.484;2023-02-28T15:08:31;13.45;;;7.47;;
68765;SDS011;55756;45.582;11.484;2023-02-28T15:11:04;16.02;;;8.18;;
68765;SDS011;55756;45.582;11.484;2023-02-28T15:13:40;12.93;;;7.28;;
68765;SDS011;55756;45.582;11.484;2023-02-28T15:16:17;12.32;;;7.15;;
68765;SDS011;55756;45.582;11.484;2023-02-28T15:19:00;16.55;;;8.38;;
68765;SDS011;55756;45.582;11.484;2023-02-28T15:21:30;15.68;;;8.70;;
68765;SDS011;55756;45.582;11.484;2023-02-28T15:24:05;14.55;;;7.95;;
68765;SDS011;55756;45.582;11.484;2023-02-28T15:26:39;13.05;;;7.70;;
68765;SDS011;55756;45.582;11.484;2023-02-28T15:29:10;12.55;;;7.50;;
68765;SDS011;55756;45.582;11.484;2023-02-28T15:31:40;13.77;;;7.50;;
68765;SDS011;55756;45.582;11.484;2023-02-28T15:34:16;13.35;;;7.40;;
68765;SDS011;55756;45.582;11.484;2023-02-28T15:37:23;12.30;;;6.85;;
68765;SDS011;55756;45.582;11.484;2023-02-28T15:39:50;12.23;;;6.68;;
68765;SDS011;55756;45.582;11.484;2023-02-28T15:42:21;13.25;;;6.78;;
68765;SDS011;55756;45.582;11.484;2023-02-28T15:44:48;13.70;;;7.55;;
68765;SDS011;55756;45.582;11.484;2023-02-28T15:47:17;12.13;;;7.45;;
68765;SDS011;55756;45.582;11.484;2023-02-28T15:49:53;14.23;;;7.35;;
68765;SDS011;55756;45.582;11.484;2023-02-28T15:55:11;13.20;;;7.63;;
68765;SDS011;55756;45.582;11.484;2023-02-28T15:57:41;14.50;;;6.93;;
68765;SDS011;55756;45.582;11.484;2023-02-28T16:00:15;13.95;;;7.18;;
68765;SDS011;55756;45.582;11.484;2023-02-28T16:02:45;12.68;;;6.57;;
68765;SDS011;55756;45.582;11.484;2023-02-28T16:07:38;14.43;;;7.25;;
68765;SDS011;55756;45.582;11.484;2023-02-28T16:10:05;14.85;;;6.82;;
68765;SDS011;55756;45.582;11.484;2023-02-28T16:12:36;16.13;;;8.13;;
68765;SDS011;55756;45.582;11.484;2023-02-28T16:15:20;12.90;;;7.97;;
68765;SDS011;55756;45.582;11.484;2023-02-28T16:17:48;15.70;;;8.07;;
68765;SDS011;55756;45.582;11.484;2023-02-28T16:20:19;14.13;;;7.63;;
68765;SDS011;55756;45.582;11.484;2023-02-28T16:22:52;17.77;;;7.40;;
68765;SDS011;55756;45.582;11.484;2023-02-28T16:25:20;14.48;;;7.03;;
68765;SDS011;55756;45.582;11.484;2023-02-28T16:27:53;14.25;;;7.18;;
68765;SDS011;55756;45.582;11.484;2023-02-28T16:30:21;15.40;;;7.97;;
68765;SDS011;55756;45.582;11.484;2023-02-28T16:32:49;17.73;;;9.43;;
68765;SDS011;55756;45.582;11.484;2023-02-28T16:35:16;16.27;;;9.40;;
68765;SDS011;55756;45.582;11.484;2023-02-28T16:37:43;14.00;;;8.07;;
68765;SDS011;55756;45.582;11.484;2023-02-28T16:40:14;17.90;;;7.60;;
68765;SDS011;55756;45.582;11.484;2023-02-28T16:42:41;14.35;;;7.13;;
68765;SDS011;55756;45.582;11.484;2023-02-28T16:45:14;12.85;;;6.78;;
68765;SDS011;55756;45.582;11.484;2023-02-28T16:47:50;14.32;;;7.80;;
68765;SDS011;55756;45.582;11.484;2023-02-28T16:50:24;14.13;;;7.15;;
68765;SDS011;55756;45.582;11.484;2023-02-28T16:52:54;16.67;;;8.20;;
68765;SDS011;55756;45.582;11.484;2023-02-28T16:55:21;14.57;;;8.23;;
68765;SDS011;55756;45.582;11.484;2023-02-28T16:57:52;17.00;;;8.20;;
68765;SDS011;55756;45.582;11.484;2023-02-28T17:00:20;15.88;;;7.63;;
68765;SDS011;55756;45.582;11.484;2023-02-28T17:02:46;15.95;;;8.10;;
68765;SDS011;55756;45.582;11.484;2023-02-28T17:05:12;17.67;;;8.80;;
68765;SDS011;55756;45.582;11.484;2023-02-28T17:07:39;20.70;;;9.48;;
68765;SDS011;55756;45.582;11.484;2023-02-28T17:10:13;19.02;;;10.27;;
68765;SDS011;55756;45.582;11.484;2023-02-28T17:12:44;18.15;;;9.80;;
68765;SDS011;55756;45.582;11.484;2023-02-28T17:15:10;32.10;;;17.08;;
68765;SDS011;55756;45.582;11.484;2023-02-28T17:17:41;25.40;;;14.70;;